Time;durP1;ratioP1;P1;durP2;ratioP2;P2;SDS_P1;SDS_P2;PMS_P1;PMS_P2;Temp;Humidity;BMP_temperature;BMP_pressure;BME280_temperature;BME280_humidity;BME280_pressure;Samples;Min_cycle;Max_cycle;Signal;HPM_P1;HPM_P2
2022/03/31 00:00:51;;;;;;;7.85;4.15;;;;;;;4.13;100.00;100173.66;5052027;28;20091;-55
2022/03/31 00:03:22;;;;;;;11.10;5.05;;;;;;;4.12;100.00;100177.16;5051955;28;20106;-56
2022/03/31 00:05:50;;;;;;;9.85;4.85;;;;;;;4.07;100.00;100171.34;5052006;28;20045;-56
2022/03/31 00:08:20;;;;;;;9.80;5.18;;;;;;;4.03;100.00;100167.19;5051746;28;20045;-56
2022/03/31 00:10:50;;;;;;;11.65;5.35;;;;;;;4.07;100.00;100160.94;5051320;28;20049;-54
2022/03/31 00:13:22;;;;;;;9.70;4.55;;;;;;;4.09;100.00;100166.91;5051578;28;20049;-56
2022/03/31 00:15:50;;;;;;;10.02;5.07;;;;;;;3.98;100.00;100154.44;5050742;28;20136;-55
2022/03/31 00:18:18;;;;;;;9.23;5.65;;;;;;;3.84;100.00;100152.47;5051885;28;20072;-57
2022/03/31 00:20:48;;;;;;;11.65;5.85;;;;;;;3.89;100.00;100150.50;5052032;28;20098;-55
2022/03/31 00:23:16;;;;;;;11.85;6.07;;;;;;;3.78;100.00;100155.38;5051270;28;20091;-54
2022/03/31 00:25:44;;;;;;;11.57;5.70;;;;;;;3.78;100.00;100159.75;5051416;28;20380;-55
2022/03/31 00:28:12;;;;;;;11.50;5.90;;;;;;;3.96;100.00;100143.22;5051680;28;20448;-56
2022/03/31 00:30:41;;;;;;;10.93;5.88;;;;;;;3.89;100.00;100153.09;5052733;28;20057;-55
2022/03/31 00:33:09;;;;;;;11.82;6.22;;;;;;;3.83;100.00;100140.41;5054428;28;20045;-56
2022/03/31 00:35:37;;;;;;;10.93;6.03;;;;;;;3.81;100.00;100142.22;5055994;28;20049;-55
2022/03/31 00:38:07;;;;;;;9.85;5.97;;;;;;;3.81;100.00;100141.38;5055770;28;20053;-55
2022/03/31 00:40:36;;;;;;;10.23;6.43;;;;;;;3.71;100.00;100147.03;5055708;28;20503;-54
2022/03/31 00:43:04;;;;;;;13.75;6.03;;;;;;;3.69;100.00;100141.03;5055761;28;20116;-56
2022/03/31 00:45:46;;;;;;;11.18;6.50;;;;;;;3.65;100.00;100129.09;5055471;28;20045;-55
2022/03/31 00:48:16;;;;;;;11.43;6.47;;;;;;;3.62;100.00;100134.44;5055457;28;20045;-55
2022/03/31 00:50:44;;;;;;;13.15;6.70;;;;;;;3.62;100.00;100131.84;5055451;28;20044;-56
2022/03/31 00:53:14;;;;;;;13.20;6.30;;;;;;;3.62;100.00;100131.00;5055419;28;20380;-55
2022/03/31 00:56:00;;;;;;;10.68;6.13;;;;;;;3.53;100.00;100137.47;5087825;28;20053;-55
2022/03/31 00:58:28;;;;;;;10.90;6.65;;;;;;;3.50;100.00;100130.66;5055489;28;20131;-61
2022/03/31 01:00:56;;;;;;;12.00;6.28;;;;;;;3.55;100.00;100133.88;5055377;28;20073;-56
2022/03/31 01:03:25;;;;;;;15.05;6.97;;;;;;;3.53;100.00;100130.53;5054169;28;20056;-61
2022/03/31 01:05:53;;;;;;;12.27;7.50;;;;;;;3.51;100.00;100123.72;5055259;28;20047;-55
2022/03/31 01:08:22;;;;;;;11.00;6.55;;;;;;;3.55;100.00;100110.50;5055029;28;20081;-61
2022/03/31 01:10:53;;;;;;;11.18;6.53;;;;;;;3.54;100.00;100121.84;5055300;28;20045;-61
2022/03/31 01:13:21;;;;;;;13.95;6.90;;;;;;;3.53;100.00;100119.28;5054896;28;20065;-55
2022/03/31 01:15:49;;;;;;;11.90;6.95;;;;;;;3.51;100.00;100121.13;5055323;28;20514;-61
2022/03/31 01:18:17;;;;;;;14.68;7.35;;;;;;;3.36;100.00;100112.28;5054976;28;20068;-55
2022/03/31 01:20:46;;;;;;;11.73;6.95;;;;;;;3.37;100.00;100119.19;5055058;28;20426;-56
2022/03/31 01:23:16;;;;;;;13.57;7.72;;;;;;;3.39;100.00;100112.13;5054935;28;20055;-56
2022/03/31 01:25:44;;;;;;;14.23;7.28;;;;;;;3.41;100.00;100112.06;5054851;28;20043;-57
2022/03/31 01:28:13;;;;;;;11.32;6.72;;;;;;;3.37;100.00;100121.78;5054795;28;20492;-55
2022/03/31 01:30:41;;;;;;;14.65;7.00;;;;;;;3.36;100.00;100117.47;5054831;28;20053;-56
2022/03/31 01:33:09;;;;;;;13.18;7.13;;;;;;;3.42;100.00;100122.38;5054727;28;20439;-55
2022/03/31 01:35:37;;;;;;;14.30;7.18;;;;;;;3.38;100.00;100115.63;5054665;28;20048;-55
2022/03/31 01:38:06;;;;;;;13.52;7.32;;;;;;;3.43;100.00;100116.28;5054641;28;20044;-55
2022/03/31 01:40:36;;;;;;;13.68;7.63;;;;;;;3.37;100.00;100106.19;5054292;28;20049;-56
2022/03/31 01:43:04;;;;;;;11.90;6.38;;;;;;;3.38;100.00;100102.66;5054683;28;20086;-56
2022/03/31 01:45:33;;;;;;;15.07;7.38;;;;;;;3.36;100.00;100096.69;5054099;28;20079;-56
2022/03/31 01:48:04;;;;;;;13.15;6.07;;;;;;;3.31;100.00;100090.84;5053409;28;20064;-56
2022/03/31 01:50:33;;;;;;;13.60;6.18;;;;;;;3.20;100.00;100092.22;5052924;28;20041;-56
2022/03/31 01:53:01;;;;;;;11.50;6.10;;;;;;;3.33;100.00;100094.25;5054441;28;20053;-56
2022/03/31 01:55:29;;;;;;;13.43;6.32;;;;;;;3.41;100.00;100099.91;5053064;28;20044;-55
2022/03/31 01:57:59;;;;;;;11.30;6.55;;;;;;;3.28;100.00;100101.41;5054186;28;20091;-56
2022/03/31 02:00:27;;;;;;;13.18;6.47;;;;;;;3.35;100.00;100105.38;5054192;28;20041;-55
2022/03/31 02:02:55;;;;;;;12.02;6.20;;;;;;;3.29;100.00;100101.31;5054104;28;20053;-53
2022/03/31 02:05:23;;;;;;;9.80;5.43;;;;;;;3.27;100.00;100091.91;5054079;28;20045;-55
2022/03/31 02:07:55;;;;;;;13.23;5.40;;;;;;;3.22;100.00;100092.13;5054072;28;20048;-55
2022/03/31 02:10:25;;;;;;;11.80;6.10;;;;;;;3.17;100.00;100091.50;5053828;28;20148;-56
2022/03/31 02:12:54;;;;;;;12.30;5.13;;;;;;;3.17;100.00;100079.34;5053934;28;20080;-56
2022/03/31 02:15:25;;;;;;;10.88;5.72;;;;;;;3.20;100.00;100080.97;5054256;28;20049;-54
2022/03/31 02:17:55;;;;;;;11.48;5.68;;;;;;;3.10;100.00;100080.56;5053474;28;20048;-56
2022/03/31 02:20:24;;;;;;;7.95;4.50;;;;;;;3.02;100.00;100072.25;5053079;28;20041;-55
2022/03/31 02:22:52;;;;;;;9.45;4.28;;;;;;;3.12;100.00;100078.75;5053205;28;20049;-56
2022/03/31 02:25:20;;;;;;;9.57;3.85;;;;;;;2.99;100.00;100075.84;5053621;28;20045;-56
2022/03/31 02:27:52;;;;;;;6.78;3.60;;;;;;;2.92;100.00;100073.59;5053331;28;20041;-55
2022/03/31 02:30:22;;;;;;;7.15;4.00;;;;;;;2.85;100.00;100068.69;5053527;28;20491;-56
2022/03/31 02:32:52;;;;;;;7.45;3.90;;;;;;;2.87;100.00;100069.44;5053662;28;20049;-55
2022/03/31 02:35:20;;;;;;;8.10;3.50;;;;;;;2.92;100.00;100077.03;5053532;28;20499;-56
2022/03/31 02:37:48;;;;;;;6.57;3.28;;;;;;;2.76;100.00;100076.88;5053459;28;20419;-56
2022/03/31 02:40:16;;;;;;;7.22;3.80;;;;;;;2.85;100.00;100068.69;5053144;28;20557;-55
2022/03/31 02:42:44;;;;;;;5.88;3.20;;;;;;;2.82;100.00;100068.84;5053468;28;20045;-56
2022/03/31 02:45:13;;;;;;;8.43;3.90;;;;;;;2.64;100.00;100060.09;5052862;28;20053;-54
2022/03/31 02:47:44;;;;;;;7.28;4.03;;;;;;;2.70;100.00;100056.41;5053173;28;20098;-56
2022/03/31 02:50:15;;;;;;;6.43;3.33;;;;;;;2.51;100.00;100067.59;5053400;28;20073;-54
2022/03/31 02:55:45;;;;;;;6.75;3.20;;;;;;;2.55;100.00;100060.53;5011136;28;20429;-56
2022/03/31 02:58:13;;;;;;;7.18;3.45;;;;;;;2.55;100.00;100055.34;5011094;28;20065;-56
2022/03/31 03:00:41;;;;;;;6.90;3.20;;;;;;;2.62;100.00;100051.53;5029993;28;20049;-55
2022/03/31 03:03:11;;;;;;;5.45;2.88;;;;;;;2.59;100.00;100050.81;5053032;28;20049;-56
2022/03/31 03:05:42;;;;;;;5.65;2.80;;;;;;;2.63;100.00;100054.97;5052820;28;20056;-56
2022/03/31 03:08:10;;;;;;;6.05;2.58;;;;;;;2.56;100.00;100057.00;5052511;28;20049;-55
2022/03/31 03:10:39;;;;;;;5.85;2.90;;;;;;;2.44;100.00;100063.59;5052682;28;20049;-56
2022/03/31 03:13:07;;;;;;;5.32;2.38;;;;;;;2.53;100.00;100047.59;5052668;28;20048;-56
2022/03/31 03:15:36;;;;;;;5.68;2.60;;;;;;;2.61;100.00;100051.63;5053128;28;20469;-54
2022/03/31 03:18:04;;;;;;;4.93;2.42;;;;;;;2.48;100.00;100044.38;5052830;28;20125;-55
2022/03/31 03:20:33;;;;;;;5.53;2.72;;;;;;;2.37;100.00;100046.56;5051383;28;20503;-55
2022/03/31 03:23:02;;;;;;;5.78;2.42;;;;;;;2.27;100.00;100038.34;5052807;28;20048;-56
2022/03/31 03:25:30;;;;;;;5.07;2.38;;;;;;;2.24;100.00;100037.66;5052626;28;20044;-56
2022/03/31 03:27:59;;;;;;;5.53;2.70;;;;;;;2.26;100.00;100036.66;5052398;28;20094;-54
2022/03/31 03:30:27;;;;;;;6.13;2.40;;;;;;;2.37;100.00;100033.59;5052395;28;20045;-56
2022/03/31 03:32:55;;;;;;;3.47;1.90;;;;;;;2.24;100.00;100048.88;5052406;28;20048;-55
2022/03/31 03:35:23;;;;;;;3.63;2.20;;;;;;;2.15;100.00;100044.91;5052231;28;20052;-56
2022/03/31 03:37:51;;;;;;;4.85;2.20;;;;;;;2.23;100.00;100047.19;5052306;28;20048;-55
2022/03/31 03:40:21;;;;;;;3.42;1.90;;;;;;;2.17;100.00;100047.47;5051693;28;20401;-55
2022/03/31 03:42:49;;;;;;;4.57;1.92;;;;;;;2.22;100.00;100047.25;5052034;28;20495;-56
2022/03/31 03:45:17;;;;;;;4.40;2.33;;;;;;;2.19;100.00;100045.63;5052327;28;20056;-56
2022/03/31 03:47:48;;;;;;;3.83;2.15;;;;;;;2.31;100.00;100050.28;5052354;28;20492;-56
2022/03/31 03:50:16;;;;;;;5.68;2.00;;;;;;;2.35;100.00;100053.59;5052013;28;20500;-56
2022/03/31 03:52:44;;;;;;;5.32;2.22;;;;;;;2.30;100.00;100063.34;5051859;28;20126;-56
2022/03/31 03:55:13;;;;;;;4.20;2.05;;;;;;;2.43;100.00;100061.06;5051915;28;20053;-54
2022/03/31 03:57:43;;;;;;;3.83;1.90;;;;;;;2.33;100.00;100066.66;5052196;28;20041;-56
2022/03/31 04:00:12;;;;;;;3.97;2.08;;;;;;;2.36;100.00;100069.09;5052090;28;20049;-56
2022/03/31 04:02:41;;;;;;;4.90;1.92;;;;;;;2.18;100.00;100064.69;5052197;28;20053;-56
2022/03/31 04:05:10;;;;;;;3.70;1.92;;;;;;;2.17;100.00;100058.69;5051886;28;20052;-55
2022/03/31 04:07:38;;;;;;;3.50;1.65;;;;;;;2.14;100.00;100058.81;5051968;28;20060;-55
2022/03/31 04:10:08;;;;;;;4.15;1.80;;;;;;;2.22;100.00;100036.88;5051908;28;20053;-55
2022/03/31 04:12:38;;;;;;;3.15;1.60;;;;;;;2.14;100.00;100039.78;5051967;28;20131;-56
2022/03/31 04:15:08;;;;;;;3.40;1.77;;;;;;;2.11;100.00;100040.75;5050496;28;20061;-55
2022/03/31 04:17:37;;;;;;;4.60;1.90;;;;;;;2.21;100.00;100036.03;5051688;28;20041;-55
2022/03/31 04:20:06;;;;;;;4.35;2.10;;;;;;;2.01;100.00;100029.94;5051785;28;20095;-55
2022/03/31 04:22:37;;;;;;;5.00;2.30;;;;;;;1.93;100.00;100018.22;5051814;28;20493;-55
2022/03/31 04:25:06;;;;;;;5.00;2.42;;;;;;;2.01;100.00;100022.16;5051750;28;20403;-56
2022/03/31 04:27:35;;;;;;;4.20;2.13;;;;;;;1.90;100.00;100019.19;5051657;28;20049;-54
2022/03/31 04:30:05;;;;;;;4.70;2.30;;;;;;;1.76;100.00;100016.31;5050331;28;20045;-55
2022/03/31 04:32:35;;;;;;;6.30;2.90;;;;;;;1.75;100.00;100012.06;5051772;28;20064;-54
2022/03/31 04:35:03;;;;;;;6.63;2.72;;;;;;;1.82;100.00;100016.06;5051668;28;20118;-54
2022/03/31 04:37:32;;;;;;;7.20;2.90;;;;;;;1.84;100.00;100025.47;5051628;28;20045;-55
2022/03/31 04:40:00;;;;;;;4.88;2.50;;;;;;;1.85;100.00;100019.41;5051159;28;20103;-56
2022/03/31 04:42:28;;;;;;;5.03;2.70;;;;;;;1.78;100.00;100036.09;5051387;28;20052;-55
2022/03/31 04:44:57;;;;;;;5.95;2.85;;;;;;;1.80;100.00;100036.88;5051616;28;20375;-55
2022/03/31 04:47:25;;;;;;;6.47;2.85;;;;;;;1.91;100.00;100038.16;5051565;28;20073;-55
2022/03/31 04:49:55;;;;;;;6.25;2.40;;;;;;;1.98;100.00;100043.03;5051548;28;20037;-55
2022/03/31 04:52:23;;;;;;;6.03;2.58;;;;;;;2.01;100.00;100034.28;5051455;28;20056;-54
2022/03/31 04:54:51;;;;;;;5.63;2.40;;;;;;;1.89;100.00;100035.66;5051507;28;20421;-54
2022/03/31 04:57:21;;;;;;;5.80;2.45;;;;;;;1.86;100.00;100030.59;5051449;28;20129;-54
2022/03/31 04:59:49;;;;;;;4.43;2.30;;;;;;;1.86;100.00;100028.84;5051360;28;20051;-55
2022/03/31 05:02:18;;;;;;;4.68;2.20;;;;;;;1.85;100.00;100024.56;5051469;28;20119;-56
2022/03/31 05:04:46;;;;;;;4.45;2.13;;;;;;;1.81;100.00;100025.63;5050851;28;20091;-55
2022/03/31 05:07:16;;;;;;;4.88;2.15;;;;;;;1.99;100.00;100028.31;5051447;28;20495;-55
2022/03/31 05:09:45;;;;;;;3.55;2.13;;;;;;;1.86;100.00;100035.78;5051493;28;20044;-55
2022/03/31 05:12:13;;;;;;;4.55;2.28;;;;;;;1.95;100.00;100034.53;5051476;28;20450;-55
2022/03/31 05:14:42;;;;;;;4.22;2.05;;;;;;;1.96;100.00;100039.66;5050891;28;20057;-55
2022/03/31 05:17:10;;;;;;;3.72;1.92;;;;;;;1.93;100.00;100044.16;5053606;28;20057;-53
2022/03/31 05:19:39;;;;;;;6.10;2.00;;;;;;;2.00;100.00;100051.63;5054901;28;20076;-55
2022/03/31 05:22:07;;;;;;;5.88;1.80;;;;;;;1.81;100.00;100045.50;5054850;28;20041;-55
2022/03/31 05:24:36;;;;;;;7.25;2.67;;;;;;;1.69;100.00;100046.84;5054878;28;20118;-54
2022/03/31 05:27:05;;;;;;;5.28;2.03;;;;;;;1.68;100.00;100037.41;5054893;28;20044;-55
2022/03/31 05:29:34;;;;;;;6.75;2.63;;;;;;;1.67;100.00;100035.69;5054518;28;20049;-55
2022/03/31 05:32:03;;;;;;;4.25;1.85;;;;;;;1.75;100.00;100033.63;5054788;28;20045;-55
2022/03/31 05:34:34;;;;;;;4.13;2.10;;;;;;;1.49;100.00;100030.34;5054573;28;20135;-54
2022/03/31 05:37:03;;;;;;;4.68;2.45;;;;;;;1.44;100.00;100024.50;5054995;28;20049;-54
2022/03/31 05:39:32;;;;;;;3.33;2.10;;;;;;;1.52;100.00;100025.03;5054536;28;20051;-56
2022/03/31 05:42:02;;;;;;;4.60;2.17;;;;;;;1.34;100.00;100020.63;5054594;28;20450;-56
2022/03/31 05:44:30;;;;;;;4.38;2.38;;;;;;;1.22;100.00;100015.94;5054768;28;20053;-54
2022/03/31 05:46:59;;;;;;;3.97;2.13;;;;;;;1.17;100.00;100016.94;5054455;28;20045;-56
2022/03/31 05:49:27;;;;;;;5.25;2.72;;;;;;;1.08;100.00;100012.13;5054197;28;20041;-56
2022/03/31 05:51:55;;;;;;;4.85;2.72;;;;;;;1.06;100.00;100015.69;5054539;28;20527;-55
2022/03/31 05:54:23;;;;;;;5.55;2.53;;;;;;;1.06;100.00;100016.50;5054505;28;20049;-55
2022/03/31 05:56:51;;;;;;;4.43;2.53;;;;;;;1.13;100.00;100028.34;5054190;28;20063;-55
2022/03/31 05:59:26;;;;;;;4.18;2.47;;;;;;;1.14;100.00;100031.75;5054252;28;20033;-56
2022/03/31 06:01:54;;;;;;;4.95;2.45;;;;;;;1.09;100.00;100034.53;5054382;28;20049;-57
2022/03/31 06:04:22;;;;;;;4.80;2.30;;;;;;;1.08;100.00;100038.03;5054315;28;20475;-56
2022/03/31 06:06:50;;;;;;;4.30;2.17;;;;;;;1.22;100.00;100034.88;5054224;28;20052;-56
2022/03/31 06:09:18;;;;;;;4.10;2.30;;;;;;;1.32;100.00;100032.78;5054152;28;20075;-56
2022/03/31 06:11:47;;;;;;;4.85;2.45;;;;;;;1.21;100.00;100032.38;5053974;28;20461;-56
2022/03/31 06:14:15;;;;;;;5.75;2.50;;;;;;;1.24;100.00;100040.88;5053498;28;20516;-56
2022/03/31 06:16:45;;;;;;;4.55;2.17;;;;;;;1.17;100.00;100037.69;5053986;28;20052;-57
2022/03/31 06:19:13;;;;;;;4.38;2.20;;;;;;;1.23;100.00;100041.75;5053949;28;20116;-57
2022/03/31 06:21:43;;;;;;;4.28;2.00;;;;;;;1.24;100.00;100038.28;5053717;28;20480;-58
2022/03/31 06:24:11;;;;;;;4.07;2.10;;;;;;;1.12;100.00;100031.81;5053736;28;20545;-57
2022/03/31 06:26:40;;;;;;;3.83;2.05;;;;;;;1.21;100.00;100034.97;5053174;28;20045;-57
2022/03/31 06:29:08;;;;;;;3.70;1.83;;;;;;;1.25;100.00;100037.34;5052874;28;20041;-58
2022/03/31 06:31:38;;;;;;;3.30;1.95;;;;;;;1.23;100.00;100038.31;5053773;28;20068;-57
2022/03/31 06:34:09;;;;;;;5.07;2.13;;;;;;;1.22;100.00;100047.00;5053819;28;20041;-57
2022/03/31 06:36:37;;;;;;;3.55;1.88;;;;;;;1.20;100.00;100044.47;5053905;28;20033;-58
2022/03/31 06:39:05;;;;;;;6.70;2.13;;;;;;;1.10;100.00;100046.56;5053727;28;20136;-58
2022/03/31 06:41:38;;;;;;;3.65;1.90;;;;;;;1.11;100.00;100039.66;5053534;28;20055;-57
2022/03/31 06:44:13;;;;;;;4.45;1.85;;;;;;;1.09;100.00;100037.13;5053664;28;20041;-57
2022/03/31 06:46:47;;;;;;;3.55;1.70;;;;;;;1.14;100.00;100035.19;5052828;28;20530;-57
2022/03/31 06:49:21;;;;;;;2.97;1.60;;;;;;;1.22;100.00;100034.88;5052839;28;20523;-57
2022/03/31 06:51:51;;;;;;;2.40;1.60;;;;;;;1.12;100.00;100024.06;5052964;28;20086;-57
2022/03/31 06:54:22;;;;;;;3.38;1.60;;;;;;;1.08;100.00;100029.38;5053163;28;20045;-58
2022/03/31 06:56:55;;;;;;;2.88;1.40;;;;;;;1.03;100.00;100026.16;5053183;28;20045;-57
2022/03/31 06:59:31;;;;;;;2.10;1.60;;;;;;;0.98;100.00;100023.72;5053303;28;20387;-58
2022/03/31 07:01:59;;;;;;;2.38;1.40;;;;;;;0.98;100.00;100034.09;5053355;28;20052;-57
2022/03/31 07:04:33;;;;;;;2.60;1.40;;;;;;;1.09;100.00;100029.34;5085577;28;20052;-57
2022/03/31 07:07:06;;;;;;;1.58;1.25;;;;;;;1.20;100.00;100034.13;5053286;28;20063;-57
2022/03/31 07:09:35;;;;;;;4.80;1.60;;;;;;;1.25;100.00;100032.16;5085310;28;20083;-56
2022/03/31 07:12:07;;;;;;;2.42;1.30;;;;;;;1.31;100.00;100033.66;5053222;28;20040;-56
2022/03/31 07:14:37;;;;;;;3.63;1.47;;;;;;;1.40;100.00;100027.28;5052826;28;20064;-56
2022/03/31 07:17:09;;;;;;;3.80;1.63;;;;;;;1.46;100.00;100030.50;5053392;28;20991;-55
2022/03/31 07:19:45;;;;;;;1.70;1.30;;;;;;;1.36;100.00;100039.53;5084796;28;20083;-54
2022/03/31 07:22:28;;;;;;;2.53;1.40;;;;;;;1.35;100.00;100032.69;5051763;28;20041;-56
2022/03/31 07:25:08;;;;;;;2.45;1.50;;;;;;;1.21;100.00;100032.38;5083869;28;20045;-56
2022/03/31 07:27:42;;;;;;;2.53;1.63;;;;;;;1.15;100.00;100029.09;5049694;28;20045;-55
2022/03/31 07:30:13;;;;;;;2.90;1.63;;;;;;;1.17;100.00;100029.03;5049303;28;20091;-54
2022/03/31 07:32:49;;;;;;;3.17;1.52;;;;;;;1.19;100.00;100032.44;5049389;28;20044;-57
2022/03/31 07:35:20;;;;;;;2.45;1.45;;;;;;;1.08;100.00;100025.06;5052553;28;20063;-56
2022/03/31 07:37:48;;;;;;;2.97;1.73;;;;;;;1.20;100.00;100025.50;5052607;28;20443;-56
2022/03/31 07:40:16;;;;;;;3.35;1.70;;;;;;;1.18;100.00;100026.38;5051499;28;20045;-55
2022/03/31 07:42:44;;;;;;;4.63;1.95;;;;;;;1.17;100.00;100026.44;5048479;28;20048;-54
2022/03/31 07:45:13;;;;;;;3.63;2.10;;;;;;;1.12;100.00;100021.47;5051337;28;20503;-55
2022/03/31 07:47:42;;;;;;;3.67;1.80;;;;;;;1.10;100.00;100025.84;5049527;28;20102;-54
2022/03/31 07:50:12;;;;;;;2.85;1.70;;;;;;;1.12;100.00;100013.69;5048795;28;20041;-54
2022/03/31 07:52:43;;;;;;;3.15;1.85;;;;;;;1.17;100.00;100005.72;5052226;28;20098;-55
2022/03/31 07:55:14;;;;;;;3.17;1.90;;;;;;;1.26;100.00;100014.91;5052532;28;20041;-56
2022/03/31 07:57:42;;;;;;;3.50;1.90;;;;;;;1.13;100.00;100007.63;5052412;28;20415;-54
2022/03/31 08:00:12;;;;;;;3.58;1.80;;;;;;;1.20;100.00;100020.31;5049817;28;20095;-55
2022/03/31 08:02:41;;;;;;;3.97;1.90;;;;;;;1.22;100.00;100016.75;5047149;28;20064;-54
2022/03/31 08:05:10;;;;;;;2.78;1.73;;;;;;;1.26;100.00;100020.09;5051332;28;20099;-53
2022/03/31 08:07:39;;;;;;;3.78;1.90;;;;;;;1.25;100.00;100011.44;5048237;28;20542;-56
2022/03/31 08:10:10;;;;;;;5.45;2.25;;;;;;;1.41;100.00;100003.91;5049774;28;20384;-53
2022/03/31 08:12:39;;;;;;;2.90;1.60;;;;;;;1.40;100.00;100012.59;5052096;28;20045;-55
2022/03/31 08:15:09;;;;;;;3.70;1.85;;;;;;;1.50;100.00;100010.44;5051584;28;20063;-56
2022/03/31 08:17:38;;;;;;;4.43;2.00;;;;;;;1.43;100.00;100007.28;5051579;28;20526;-55
2022/03/31 08:20:09;;;;;;;4.55;2.38;;;;;;;1.32;100.00;100006.88;5052253;28;20536;-54
2022/03/31 08:22:38;;;;;;;4.05;2.10;;;;;;;1.43;100.00;100002.13;5049767;28;20719;-54
2022/03/31 08:25:10;;;;;;;4.05;2.13;;;;;;;1.45;100.00;100013.25;5048637;28;20056;-55
2022/03/31 08:27:39;;;;;;;4.38;2.30;;;;;;;1.41;100.00;100016.88;5050634;28;20635;-56
2022/03/31 08:30:10;;;;;;;3.95;2.20;;;;;;;1.44;100.00;100016.72;5051955;28;20041;-56
2022/03/31 08:32:42;;;;;;;4.63;2.50;;;;;;;1.26;100.00;100017.50;5050477;28;20496;-54
2022/03/31 08:35:11;;;;;;;3.83;2.40;;;;;;;1.35;100.00;100006.75;5048787;28;20049;-56
2022/03/31 08:37:40;;;;;;;5.25;2.72;;;;;;;1.36;100.00;100011.03;5050111;28;20417;-56
2022/03/31 08:40:12;;;;;;;4.45;2.45;;;;;;;1.41;100.00;100005.66;5051900;28;20365;-55
2022/03/31 08:42:41;;;;;;;5.10;2.80;;;;;;;1.40;100.00;100012.59;5051681;28;20131;-54
2022/03/31 08:45:13;;;;;;;5.47;2.70;;;;;;;1.41;100.00;100014.28;5051628;28;20041;-57
2022/03/31 08:47:43;;;;;;;5.22;2.90;;;;;;;1.43;100.00;100014.22;5051487;28;20075;-57
2022/03/31 08:50:18;;;;;;;5.72;2.92;;;;;;;1.47;100.00;100008.84;5051697;28;20048;-57
2022/03/31 08:52:47;;;;;;;6.35;3.42;;;;;;;1.52;100.00;100011.25;5055675;28;20059;-56
2022/03/31 08:55:16;;;;;;;5.40;2.88;;;;;;;1.59;100.00;100011.84;5055464;28;20057;-59
2022/03/31 08:57:48;;;;;;;6.10;2.90;;;;;;;1.62;100.00;100014.31;5054179;28;20111;-59
2022/03/31 09:00:20;;;;;;;5.45;3.17;;;;;;;1.62;100.00;100014.31;5052485;28;20515;-57
2022/03/31 09:02:56;;;;;;;4.33;2.33;;;;;;;1.51;100.00;100010.41;5052484;28;20090;-55
2022/03/31 09:05:25;;;;;;;5.07;2.80;;;;;;;1.55;100.00;100016.31;5055430;28;20072;-56
2022/03/31 09:07:59;;;;;;;5.07;2.90;;;;;;;1.61;100.00;100018.66;5055375;28;20045;-55
2022/03/31 09:10:31;;;;;;;4.88;2.67;;;;;;;1.64;100.00;100017.69;5055344;28;20052;-53
2022/03/31 09:13:01;;;;;;;5.60;3.37;;;;;;;1.54;100.00;100026.75;5055655;28;20049;-54
2022/03/31 09:15:32;;;;;;;;;;;;;;;1.48;100.00;100026.06;5055392;28;20057;-55
2022/03/31 09:18:01;;;;;;;5.55;2.70;;;;;;;1.51;100.00;100020.78;5055247;28;19920;-53
2022/03/31 09:20:40;;;;;;;5.63;3.00;;;;;;;1.52;100.00;100032.81;5055397;28;20396;-52
2022/03/31 09:23:15;;;;;;;5.10;2.92;;;;;;;1.70;100.00;100025.19;5055221;28;20146;-54
2022/03/31 09:25:45;;;;;;;4.90;2.72;;;;;;;1.69;100.00;100026.97;5055032;28;20080;-52
2022/03/31 09:28:16;;;;;;;6.38;3.17;;;;;;;1.77;100.00;100029.25;5054406;28;20484;-52
2022/03/31 09:30:48;;;;;;;5.68;3.15;;;;;;;1.82;100.00;100029.03;5051323;28;20056;-52
2022/03/31 09:33:31;;;;;;;5.10;2.88;;;;;;;1.85;100.00;100027.16;5052630;28;20465;-53
2022/03/31 09:36:01;;;;;;;5.65;3.28;;;;;;;1.74;100.00;100029.34;5054924;28;20083;-51
2022/03/31 09:38:29;;;;;;;6.40;3.65;;;;;;;1.73;100.00;100035.44;5054775;28;20052;-51
2022/03/31 09:40:59;;;;;;;5.10;3.20;;;;;;;1.73;100.00;100027.66;5051077;28;20119;-53
2022/03/31 09:43:27;;;;;;;6.00;3.30;;;;;;;1.76;100.00;100024.97;5051953;28;20049;-53
2022/03/31 09:45:55;;;;;;;5.53;3.00;;;;;;;1.81;100.00;100029.94;5054303;28;20407;-53
2022/03/31 09:48:25;;;;;;;5.88;3.25;;;;;;;1.75;100.00;100023.25;5054065;28;20098;-53
2022/03/31 09:50:53;;;;;;;5.72;3.10;;;;;;;1.80;100.00;100031.69;5054436;28;20037;-54
2022/03/31 09:53:22;;;;;;;8.00;4.25;;;;;;;1.72;100.00;100028.59;5054310;28;20049;-53
2022/03/31 09:55:52;;;;;;;7.45;3.50;;;;;;;1.74;100.00;100028.53;5054016;28;20048;-52
2022/03/31 09:58:21;;;;;;;6.68;3.53;;;;;;;1.78;100.00;100032.66;5054093;28;20052;-51
2022/03/31 10:00:50;;;;;;;6.65;3.20;;;;;;;1.75;100.00;100027.63;5054480;28;20396;-52
2022/03/31 10:03:18;;;;;;;6.65;3.17;;;;;;;1.92;100.00;100021.72;5051201;28;20079;-52
2022/03/31 10:05:48;;;;;;;8.05;3.42;;;;;;;1.73;100.00;100032.84;5050409;28;20048;-52
2022/03/31 10:08:18;;;;;;;5.38;3.15;;;;;;;1.77;100.00;100033.56;5053052;28;20503;-51
2022/03/31 10:10:47;;;;;;;7.95;3.30;;;;;;;1.66;100.00;100039.19;5082580;28;20056;-53
2022/03/31 10:13:20;;;;;;;8.13;3.13;;;;;;;1.67;100.00;100027.94;5052102;28;20057;-53
2022/03/31 10:15:50;;;;;;;;;;;;;;;1.51;100.00;100033.75;5054421;28;20473;-54
2022/03/31 10:18:19;;;;;;;8.00;3.53;;;;;;;1.60;100.00;100026.50;5053550;28;20398;-50
2022/03/31 10:20:56;;;;;;;6.25;2.70;;;;;;;1.62;100.00;100035.03;5049890;28;20037;-48
2022/03/31 10:26:22;;;;;;;7.70;3.17;;;;;;;1.60;100.00;100027.34;5053872;28;20063;-51
2022/03/31 10:28:57;;;;;;;5.20;2.67;;;;;;;1.71;100.00;100023.47;5050080;28;20060;-52
2022/03/31 10:31:38;;;;;;;6.00;3.00;;;;;;;1.56;100.00;100025.78;5049385;28;20044;-52
2022/03/31 10:34:08;;;;;;;8.02;3.50;;;;;;;1.63;100.00;100026.38;5053623;28;20040;-51
2022/03/31 10:36:39;;;;;;;8.05;3.15;;;;;;;1.59;100.00;100024.81;5053985;28;20376;-51
2022/03/31 10:39:09;;;;;;;8.32;3.45;;;;;;;1.70;100.00;100022.59;5050501;28;20045;-52
2022/03/31 10:41:40;;;;;;;5.70;3.50;;;;;;;1.76;100.00;100022.38;5050738;28;20049;-52
2022/03/31 10:44:18;;;;;;;6.63;2.97;;;;;;;1.71;100.00;100021.72;5052017;28;20045;-50
2022/03/31 10:47:00;;;;;;;4.88;2.70;;;;;;;1.62;100.00;100030.72;5048057;28;20071;-50
2022/03/31 10:49:29;;;;;;;5.63;2.85;;;;;;;1.57;100.00;100026.59;5052843;28;20044;-52
2022/03/31 10:51:58;;;;;;;5.45;2.80;;;;;;;1.64;100.00;100021.13;5049661;28;20044;-52
2022/03/31 10:54:29;;;;;;;5.60;2.95;;;;;;;1.62;100.00;100025.53;5050621;28;20059;-52
2022/03/31 10:57:07;;;;;;;4.50;2.30;;;;;;;1.67;100.00;100020.97;5053614;28;20040;-53
2022/03/31 10:59:37;;;;;;;4.72;2.63;;;;;;;1.58;100.00;100017.94;5049499;28;20056;-53
2022/03/31 11:02:15;;;;;;;4.50;2.25;;;;;;;1.71;100.00;100016.53;5047897;28;20586;-51
2022/03/31 11:04:52;;;;;;;4.43;2.35;;;;;;;1.61;100.00;100012.59;5052485;28;20049;-53
2022/03/31 11:07:24;;;;;;;5.85;2.70;;;;;;;1.66;100.00;100010.69;5053304;28;20045;-51
2022/03/31 11:10:00;;;;;;;4.97;2.72;;;;;;;1.72;100.00;100009.56;5053400;28;20127;-52
2022/03/31 11:12:30;;;;;;;4.03;2.50;;;;;;;1.81;100.00;100007.47;5052994;28;20048;-52
2022/03/31 11:15:00;;;;;;;5.05;2.40;;;;;;;1.82;100.00;100011.72;5051665;28;20076;-53
2022/03/31 11:17:31;;;;;;;4.35;2.53;;;;;;;1.71;100.00;100013.09;5052693;28;20049;-53
2022/03/31 11:20:03;;;;;;;4.57;2.53;;;;;;;1.77;100.00;100011.09;5053236;28;20049;-53
2022/03/31 11:22:31;;;;;;;3.83;2.28;;;;;;;1.67;100.00;100009.78;5051803;28;20045;-54
2022/03/31 11:25:10;;;;;;;3.92;2.30;;;;;;;1.64;100.00;100004.72;5052677;28;20048;-54
2022/03/31 11:27:42;;;;;;;3.75;2.17;;;;;;;1.48;100.00;100007.94;5053018;28;20056;-53
2022/03/31 11:30:12;;;;;;;3.28;2.15;;;;;;;1.71;100.00;100000.97;5051534;28;20140;-55
2022/03/31 11:32:44;;;;;;;4.63;2.50;;;;;;;1.76;100.00;99999.03;5052627;28;20131;-55
2022/03/31 11:35:14;;;;;;;3.45;2.20;;;;;;;1.69;100.00;99995.84;5052658;28;20060;-55
2022/03/31 11:37:45;;;;;;;4.22;2.60;;;;;;;1.62;100.00;99991.84;5053107;28;20053;-55
2022/03/31 11:40:19;;;;;;;3.97;2.40;;;;;;;1.74;100.00;99993.06;5052750;28;20041;-56
2022/03/31 11:42:48;;;;;;;3.78;2.30;;;;;;;1.83;100.00;99987.47;5052468;28;20407;-55